Time;durP1;ratioP1;P1;durP2;ratioP2;P2;SDS_P1;SDS_P2;PMS_P1;PMS_P2;Temp;Humidity;BMP_temperature;BMP_pressure;BME280_temperature;BME280_humidity;BME280_pressure;Samples;Min_cycle;Max_cycle;Signal;HPM_P1;HPM_P2
2023/10/03 00:01:01;;;;;;;10.13;8.00;;;;;;;15.44;55.96;95849.72;5082606;28;20212;-77
2023/10/03 00:03:27;;;;;;;12.43;10.05;;;;;;;15.59;55.63;95849.94;5065346;28;20196;-75
2023/10/03 00:05:54;;;;;;;16.52;12.25;;;;;;;15.60;55.79;95858.72;5068623;28;20220;-75
2023/10/03 00:08:21;;;;;;;14.43;10.57;;;;;;;15.54;55.69;95851.41;5068325;28;20307;-75
2023/10/03 00:10:46;;;;;;;11.57;8.32;;;;;;;15.57;55.29;95859.84;5070627;28;20220;-76
2023/10/03 00:13:12;;;;;;;13.60;8.70;;;;;;;15.42;55.68;95849.06;5068248;28;20228;-75
2023/10/03 00:15:43;;;;;;;12.45;9.07;;;;;;;15.34;56.19;95853.50;5063380;28;20185;-75
2023/10/03 00:18:12;;;;;;;13.50;9.10;;;;;;;15.16;56.99;95849.13;5072840;28;20197;-75
2023/10/03 00:20:38;;;;;;;11.25;8.95;;;;;;;15.10;57.45;95859.53;5059490;28;20315;-74
2023/10/03 00:23:04;;;;;;;12.73;10.25;;;;;;;15.24;56.92;95858.13;5066554;28;20296;-73
2023/10/03 00:25:30;;;;;;;12.75;8.98;;;;;;;15.28;56.70;95851.50;5069674;28;20300;-74
2023/10/03 00:27:59;;;;;;;12.20;8.90;;;;;;;15.28;56.59;95852.31;5058289;28;20307;-74
2023/10/03 00:30:27;;;;;;;11.73;8.80;;;;;;;15.23;56.62;95851.97;5071186;28;20192;-76
2023/10/03 00:32:54;;;;;;;13.05;8.43;;;;;;;15.17;56.87;95856.09;5066263;28;20256;-75
2023/10/03 00:35:20;;;;;;;10.75;9.13;;;;;;;14.98;57.05;95856.34;5070443;28;20221;-75
2023/10/03 00:37:47;;;;;;;13.15;8.82;;;;;;;14.73;57.91;95852.75;5085765;28;20223;-75
2023/10/03 00:42:57;;;;;;;9.15;8.25;;;;;;;14.87;57.27;95846.84;5051742;28;20234;-75
2023/10/03 00:45:26;;;;;;;13.02;9.32;;;;;;;14.84;57.66;95854.28;5048054;28;20182;-75
2023/10/03 00:47:55;;;;;;;12.43;9.32;;;;;;;14.75;57.89;95853.41;5065864;28;20252;-75
2023/10/03 00:50:26;;;;;;;10.32;8.65;;;;;;;14.59;58.40;95850.66;5067738;28;20232;-75
2023/10/03 00:53:08;;;;;;;13.85;8.85;;;;;;;14.69;57.67;95856.69;5044579;28;20224;-75
2023/10/03 00:55:35;;;;;;;12.35;9.07;;;;;;;14.94;56.95;95858.50;5039656;28;20220;-75
2023/10/03 01:00:45;;;;;;;9.65;8.63;;;;;;;14.85;57.12;95856.78;5046268;28;20182;-75
2023/10/03 01:03:38;;;;;;;10.98;8.32;;;;;;;14.88;57.24;95853.81;5068952;28;20191;-74
2023/10/03 01:06:10;;;;;;;11.82;8.27;;;;;;;14.84;57.30;95865.72;5047883;28;20245;-74
2023/10/03 01:08:46;;;;;;;12.88;7.82;;;;;;;14.91;57.07;95861.41;5046034;28;20236;-75
2023/10/03 01:11:15;;;;;;;13.20;8.20;;;;;;;14.86;56.83;95857.59;5076912;28;20221;-74
2023/10/03 01:14:00;;;;;;;11.35;8.38;;;;;;;14.87;56.98;95859.28;5051846;28;20218;-74
2023/10/03 01:16:33;;;;;;;10.73;8.18;;;;;;;14.80;57.40;95858.22;5057045;28;20304;-74
2023/10/03 01:19:13;;;;;;;10.30;7.75;;;;;;;14.90;56.52;95856.31;5072832;28;20229;-74
2023/10/03 01:21:41;;;;;;;11.60;9.10;;;;;;;14.95;56.62;95854.84;5071168;28;20185;-74
2023/10/03 01:24:09;;;;;;;9.57;8.18;;;;;;;14.93;56.60;95848.03;5063201;28;20181;-74
2023/10/03 01:26:34;;;;;;;13.60;8.65;;;;;;;14.81;57.24;95849.28;5083003;28;20289;-75
2023/10/03 01:29:00;;;;;;;13.27;8.75;;;;;;;14.80;57.15;95840.53;5072839;28;20314;-76
2023/10/03 01:31:27;;;;;;;11.48;8.65;;;;;;;14.72;57.75;95851.88;5056163;28;20270;-76
2023/10/03 01:33:52;;;;;;;13.85;8.10;;;;;;;14.76;57.21;95847.97;5081291;28;20222;-75
2023/10/03 01:36:19;;;;;;;11.27;7.88;;;;;;;14.77;56.67;95849.59;5043567;28;20188;-75
2023/10/03 01:38:45;;;;;;;9.57;7.32;;;;;;;14.69;57.18;95851.38;5064194;28;20229;-75
2023/10/03 01:41:12;;;;;;;11.82;7.65;;;;;;;14.71;57.12;95842.31;5047842;28;20226;-75
2023/10/03 01:43:43;;;;;;;9.23;7.72;;;;;;;14.72;57.20;95848.41;5044048;28;20294;-76
2023/10/03 01:46:17;;;;;;;11.02;7.97;;;;;;;14.65;57.13;95847.38;5057804;28;20310;-76
2023/10/03 01:48:43;;;;;;;11.73;8.68;;;;;;;14.74;56.92;95855.22;5027104;28;20189;-75
2023/10/03 01:51:09;;;;;;;11.82;8.60;;;;;;;14.66;57.50;95852.53;5046073;28;20182;-76
2023/10/03 01:53:35;;;;;;;11.93;7.78;;;;;;;14.65;57.58;95848.22;5044612;28;20221;-76
2023/10/03 01:56:03;;;;;;;9.57;8.18;;;;;;;14.59;57.35;95846.19;5039331;28;20223;-76
2023/10/03 01:58:28;;;;;;;10.65;7.40;;;;;;;14.66;57.01;95851.69;5035315;28;20234;-74
2023/10/03 02:00:54;;;;;;;12.85;7.88;;;;;;;14.72;57.05;95848.41;5042693;28;20225;-75
2023/10/03 02:03:20;;;;;;;12.88;8.07;;;;;;;14.65;57.01;95839.44;5043392;28;20190;-75
2023/10/03 02:05:46;;;;;;;10.18;7.47;;;;;;;14.59;57.08;95845.38;5042224;28;20219;-75
2023/10/03 02:08:19;;;;;;;15.15;8.85;;;;;;;14.56;57.31;95844.69;5052184;28;20228;-75
2023/10/03 02:10:50;;;;;;;12.82;8.70;;;;;;;14.55;57.44;95837.75;5062803;28;20233;-75
2023/10/03 02:13:21;;;;;;;10.43;8.18;;;;;;;14.58;57.26;95835.78;5043297;28;20217;-75
2023/10/03 02:15:49;;;;;;;15.23;8.93;;;;;;;14.48;57.74;95834.00;5038979;28;20182;-75
2023/10/03 02:18:18;;;;;;;11.05;8.70;;;;;;;14.47;57.63;95826.25;5056047;28;20205;-75
2023/10/03 02:20:47;;;;;;;12.95;8.95;;;;;;;14.44;58.06;95822.09;5060124;28;20217;-75
2023/10/03 02:23:19;;;;;;;13.00;9.25;;;;;;;14.13;58.83;95832.28;5047653;28;20678;-75
2023/10/03 02:25:47;;;;;;;11.20;8.30;;;;;;;14.28;58.23;95827.28;5041450;28;20226;-78
2023/10/03 02:28:14;;;;;;;13.02;9.13;;;;;;;14.33;58.42;95822.38;5044659;28;20210;-78
2023/10/03 02:30:40;;;;;;;11.55;9.98;;;;;;;14.30;58.33;95818.22;5054249;28;20182;-75
2023/10/03 02:33:12;;;;;;;15.90;10.43;;;;;;;14.31;58.24;95817.22;5047435;28;20276;-76
2023/10/03 02:35:39;;;;;;;13.98;8.98;;;;;;;14.38;58.12;95817.44;5052529;28;20240;-75
2023/10/03 02:38:09;;;;;;;13.07;9.23;;;;;;;14.32;58.13;95805.63;5036687;28;20252;-75
2023/10/03 02:40:35;;;;;;;13.05;9.15;;;;;;;14.22;58.50;95807.56;5053488;28;20222;-75
2023/10/03 02:43:01;;;;;;;13.13;8.82;;;;;;;13.99;59.05;95809.88;5063453;28;20222;-75
2023/10/03 02:45:27;;;;;;;16.80;9.93;;;;;;;14.09;59.19;95812.44;5063704;28;20189;-75
2023/10/03 02:47:58;;;;;;;10.00;8.85;;;;;;;14.28;58.18;95806.13;5022715;28;20287;-76
2023/10/03 02:50:27;;;;;;;12.07;9.68;;;;;;;14.18;58.48;95811.50;5036524;28;20317;-74
2023/10/03 02:52:56;;;;;;;13.95;9.50;;;;;;;14.13;58.64;95809.31;5013867;28;20287;-75
2023/10/03 02:55:22;;;;;;;12.57;9.95;;;;;;;14.06;58.70;95818.88;5030372;28;20271;-75
2023/10/03 02:57:48;;;;;;;12.25;9.13;;;;;;;14.09;58.67;95805.31;5030077;28;20297;-74
2023/10/03 03:00:15;;;;;;;10.68;9.55;;;;;;;14.11;58.66;95808.66;5045599;28;20186;-75
2023/10/03 03:02:49;;;;;;;14.63;9.43;;;;;;;14.14;58.48;95810.16;5021500;28;20703;-75
2023/10/03 03:05:16;;;;;;;12.55;9.27;;;;;;;14.05;58.81;95814.53;5045102;28;20222;-77
2023/10/03 03:07:47;;;;;;;16.17;10.15;;;;;;;14.06;58.94;95818.88;5043712;28;20217;-77
2023/10/03 03:10:14;;;;;;;15.38;10.68;;;;;;;14.05;58.65;95814.53;5071025;28;20216;-77
2023/10/03 03:12:42;;;;;;;16.98;10.25;;;;;;;14.02;58.79;95816.66;5063266;28;20192;-76
2023/10/03 03:15:09;;;;;;;17.65;10.95;;;;;;;13.92;59.24;95821.22;5079621;28;20176;-76
2023/10/03 03:17:35;;;;;;;15.45;11.43;;;;;;;13.98;58.95;95825.88;5071626;28;20289;-74
2023/10/03 03:20:17;;;;;;;20.52;15.88;;;;;;;13.98;58.33;95832.03;5066179;28;20295;-75
2023/10/03 03:22:47;;;;;;;22.30;15.68;;;;;;;13.98;57.88;95832.03;5086205;28;20214;-75
2023/10/03 03:25:18;;;;;;;28.83;16.75;;;;;;;13.67;58.85;95826.28;5060469;28;20221;-75
2023/10/03 03:27:44;;;;;;;23.50;16.95;;;;;;;13.51;59.49;95840.16;5064612;28;20192;-74
2023/10/03 03:32:59;;;;;;;16.23;12.00;;;;;;;12.93;61.25;95830.72;5023507;28;20382;-73
2023/10/03 03:35:25;;;;;;;18.88;12.70;;;;;;;12.88;62.09;95837.44;5007424;28;20305;-72
2023/10/03 03:37:57;;;;;;;14.45;11.10;;;;;;;12.94;61.76;95847.41;5004624;28;20230;-72
2023/10/03 03:40:34;;;;;;;17.70;11.40;;;;;;;12.89;61.97;95849.66;5026549;28;20281;-71
2023/10/03 03:43:05;;;;;;;15.10;11.65;;;;;;;12.77;62.28;95844.53;5025270;28;20226;-71
2023/10/03 03:45:30;;;;;;;17.27;11.77;;;;;;;12.48;63.25;95851.72;5021825;28;20189;-74
2023/10/03 03:47:56;;;;;;;12.90;11.07;;;;;;;12.58;63.02;95839.34;5000478;28;20226;-76
2023/10/03 03:50:22;;;;;;;15.88;11.07;;;;;;;12.72;62.76;95838.91;5012117;28;20218;-74
2023/10/03 03:52:49;;;;;;;16.25;11.15;;;;;;;12.95;61.86;95843.78;5002022;28;20260;-74
2023/10/03 03:55:17;;;;;;;11.88;10.10;;;;;;;13.08;61.17;95849.56;5007412;28;20229;-70
2023/10/03 03:57:42;;;;;;;12.93;10.75;;;;;;;13.00;61.46;95854.75;5005856;28;20264;-71
2023/10/03 04:00:22;;;;;;;14.10;10.73;;;;;;;12.97;61.32;95852.41;5023111;28;20214;-73
2023/10/03 04:02:48;;;;;;;15.85;10.68;;;;;;;13.05;60.98;95849.03;4999856;28;20215;-74
2023/10/03 04:05:17;;;;;;;11.30;10.00;;;;;;;12.98;61.09;95848.78;5004913;28;20245;-75
2023/10/03 04:07:42;;;;;;;14.93;9.43;;;;;;;12.86;61.23;95860.53;5014894;28;20215;-74
2023/10/03 04:10:12;;;;;;;13.75;9.40;;;;;;;12.93;60.70;95849.22;5039994;28;20224;-73
2023/10/03 04:12:42;;;;;;;13.63;9.52;;;;;;;12.93;61.00;95851.84;5087570;28;20181;-73
2023/10/03 04:15:12;;;;;;;14.68;8.82;;;;;;;12.81;61.77;95863.59;5069047;28;20180;-73
2023/10/03 04:17:43;;;;;;;13.18;8.88;;;;;;;12.80;61.67;95856.63;5069064;28;20353;-73
2023/10/03 04:20:20;;;;;;;11.98;8.35;;;;;;;13.00;60.92;95857.38;5088026;28;20222;-73
2023/10/03 04:22:47;;;;;;;11.52;8.98;;;;;;;13.07;60.88;95863.75;5079267;28;20237;-75
2023/10/03 04:25:14;;;;;;;13.80;9.15;;;;;;;13.20;60.00;95864.25;5071282;28;20225;-73
2023/10/03 04:27:40;;;;;;;14.82;9.88;;;;;;;13.14;60.07;95848.97;5073237;28;20223;-73
2023/10/03 04:30:09;;;;;;;13.88;10.02;;;;;;;13.11;60.17;95859.00;5075432;28;20209;-78
2023/10/03 04:32:35;;;;;;;18.33;10.18;;;;;;;13.17;60.06;95853.94;5068711;28;20265;-76
2023/10/03 04:35:00;;;;;;;16.58;9.27;;;;;;;13.31;60.05;95860.59;5070589;28;20252;-75
2023/10/03 04:37:26;;;;;;;20.60;10.52;;;;;;;13.14;60.39;95856.88;5054215;28;20250;-78
2023/10/03 04:39:51;;;;;;;20.20;11.10;;;;;;;12.95;60.84;95854.34;5057107;28;20247;-75
2023/10/03 04:42:17;;;;;;;19.33;10.77;;;;;;;12.89;61.26;95847.84;5073764;28;20213;-75
2023/10/03 04:44:43;;;;;;;16.38;10.13;;;;;;;12.96;61.53;95845.44;5081791;28;20239;-75
2023/10/03 04:47:11;;;;;;;20.35;10.25;;;;;;;13.11;60.84;95853.72;5046161;28;20320;-75
2023/10/03 04:49:37;;;;;;;24.67;10.48;;;;;;;13.19;60.27;95851.19;5048834;28;20295;-73
2023/10/03 04:52:07;;;;;;;18.80;10.55;;;;;;;13.29;59.97;95846.72;5068939;28;20239;-74
2023/10/03 04:54:33;;;;;;;20.07;11.00;;;;;;;13.30;59.98;95852.81;5079599;28;20242;-75
2023/10/03 04:56:58;;;;;;;16.25;11.68;;;;;;;13.27;60.15;95853.13;5065941;28;20216;-77
2023/10/03 04:59:25;;;;;;;17.85;11.52;;;;;;;13.29;60.37;95856.44;5055453;28;20224;-75
2023/10/03 05:01:50;;;;;;;21.02;11.25;;;;;;;13.27;60.24;95850.47;5051585;28;20249;-79
2023/10/03 05:04:16;;;;;;;24.00;11.45;;;;;;;13.32;60.13;95856.97;5058212;28;20220;-75
2023/10/03 05:06:43;;;;;;;23.60;12.43;;;;;;;13.34;60.37;95862.94;5082118;28;20276;-76
2023/10/03 05:09:08;;;;;;;22.58;13.10;;;;;;;13.35;60.27;95850.56;5065024;28;20177;-76
2023/10/03 05:11:34;;;;;;;22.63;13.30;;;;;;;13.44;60.24;95855.81;5063814;28;20233;-76
2023/10/03 05:14:00;;;;;;;16.90;11.23;;;;;;;13.51;60.01;95861.31;5060362;28;20259;-76
2023/10/03 05:16:25;;;;;;;22.55;12.70;;;;;;;13.40;60.27;95864.16;5058566;28;20217;-76
2023/10/03 05:18:51;;;;;;;18.15;12.18;;;;;;;13.38;60.05;95866.13;5052581;28;20232;-74
2023/10/03 05:21:16;;;;;;;19.65;11.23;;;;;;;13.58;59.28;95867.66;5054595;28;20186;-74
2023/10/03 05:23:43;;;;;;;17.70;11.48;;;;;;;13.62;59.48;95868.19;5048945;28;20285;-72
2023/10/03 05:26:08;;;;;;;14.52;10.45;;;;;;;13.72;58.98;95868.97;5050963;28;20304;-72
2023/10/03 05:28:37;;;;;;;13.80;10.77;;;;;;;13.66;59.21;95865.09;5050433;28;20284;-73
2023/10/03 05:31:03;;;;;;;15.93;11.27;;;;;;;13.65;58.94;95868.72;5064142;28;20309;-73
2023/10/03 05:33:28;;;;;;;15.70;11.32;;;;;;;13.74;58.66;95872.28;5053880;28;20241;-73
2023/10/03 05:35:54;;;;;;;15.50;11.65;;;;;;;13.75;58.32;95873.94;5042908;28;20300;-72
2023/10/03 05:38:19;;;;;;;24.45;12.60;;;;;;;13.67;58.16;95869.41;5039618;28;20221;-72
2023/10/03 05:40:46;;;;;;;18.00;13.23;;;;;;;13.75;58.13;95873.13;5054873;28;20240;-73
2023/10/03 05:43:11;;;;;;;23.17;12.73;;;;;;;13.85;57.86;95874.69;5042180;28;20247;-73
2023/10/03 05:45:37;;;;;;;19.88;12.52;;;;;;;13.86;57.89;95878.16;5067378;28;20221;-74
2023/10/03 05:48:03;;;;;;;20.33;11.63;;;;;;;13.93;57.75;95870.47;5072412;28;20176;-73
2023/10/03 05:50:28;;;;;;;19.52;12.55;;;;;;;13.91;57.45;95873.25;5090469;28;20276;-73
2023/10/03 05:52:54;;;;;;;17.00;11.60;;;;;;;13.91;57.62;95878.56;5060900;28;20305;-74
2023/10/03 05:55:20;;;;;;;17.85;12.90;;;;;;;13.87;57.79;95870.09;5064547;28;20224;-74
2023/10/03 05:57:45;;;;;;;22.50;12.10;;;;;;;13.93;57.83;95873.94;5077652;28;20208;-74
2023/10/03 06:00:17;;;;;;;19.25;12.75;;;;;;;14.11;57.82;95874.78;5080024;28;20201;-64
2023/10/03 06:02:43;;;;;;;25.75;13.40;;;;;;;14.04;57.71;95878.19;5074211;28;20216;-68
2023/10/03 06:05:11;;;;;;;21.88;13.00;;;;;;;14.12;57.83;95876.41;5071018;28;20217;-70
2023/10/03 06:07:37;;;;;;;18.80;12.77;;;;;;;14.26;57.50;95882.16;5059035;28;20209;-69
2023/10/03 06:10:04;;;;;;;24.40;13.57;;;;;;;14.21;57.64;95879.97;5088963;28;20219;-70
2023/10/03 06:12:30;;;;;;;17.33;13.05;;;;;;;14.34;57.37;95882.22;5068606;28;20207;-67
2023/10/03 06:14:56;;;;;;;15.55;11.52;;;;;;;14.34;57.41;95883.03;5079082;28;20184;-70
2023/10/03 06:17:21;;;;;;;19.67;11.85;;;;;;;14.23;57.23;95887.75;5076794;28;20228;-72
2023/10/03 06:19:47;;;;;;;15.10;9.93;;;;;;;14.41;56.70;95880.63;5060228;28;20265;-67
2023/10/03 06:22:12;;;;;;;9.18;7.72;;;;;;;14.55;55.93;95876.63;5074050;28;20216;-68
2023/10/03 06:24:38;;;;;;;9.88;7.90;;;;;;;14.60;55.72;95879.63;5082052;28;20322;-67
2023/10/03 06:27:08;;;;;;;12.77;7.93;;;;;;;14.54;55.96;95875.78;5084112;28;20181;-69
2023/10/03 06:29:34;;;;;;;14.38;9.30;;;;;;;14.29;56.92;95885.31;5075105;28;20217;-67
2023/10/03 06:32:00;;;;;;;15.82;8.77;;;;;;;14.45;56.65;95889.91;5066232;28;20224;-69
2023/10/03 06:34:25;;;;;;;11.02;8.32;;;;;;;14.71;56.00;95875.88;5065672;28;20266;-78
2023/10/03 06:36:51;;;;;;;13.40;8.07;;;;;;;14.82;55.87;95883.56;5069087;28;20217;-71
2023/10/03 06:39:16;;;;;;;11.80;8.50;;;;;;;14.77;55.97;95891.97;5072795;28;20211;-67
2023/10/03 06:41:42;;;;;;;11.35;7.72;;;;;;;14.81;55.82;95887.22;5081386;28;20227;-69
2023/10/03 06:44:07;;;;;;;10.63;8.20;;;;;;;14.86;55.67;95892.88;5085705;28;20260;-72
2023/10/03 06:46:34;;;;;;;13.57;8.50;;;;;;;14.96;55.61;95895.38;5082015;28;20228;-70
2023/10/03 06:49:00;;;;;;;13.48;9.10;;;;;;;14.91;55.88;95895.84;5065859;28;20228;-70
2023/10/03 06:51:26;;;;;;;11.38;8.48;;;;;;;15.00;55.85;95892.28;5076203;28;20180;-69
2023/10/03 06:53:52;;;;;;;13.63;8.77;;;;;;;14.93;55.85;95885.13;5055459;28;20224;-71
2023/10/03 06:56:19;;;;;;;12.38;8.00;;;;;;;14.85;55.74;95901.78;5053032;28;20262;-69
2023/10/03 06:58:46;;;;;;;10.15;8.20;;;;;;;15.11;54.98;95899.13;5049138;28;20220;-69
2023/10/03 07:01:12;;;;;;;14.98;8.73;;;;;;;14.78;56.12;95893.66;5045804;28;20220;-69
2023/10/03 07:03:40;;;;;;;10.70;9.00;;;;;;;14.82;56.20;95899.44;5068250;28;20200;-70
2023/10/03 07:06:06;;;;;;;11.55;7.97;;;;;;;14.96;55.16;95900.69;5089265;28;20271;-69
2023/10/03 07:08:31;;;;;;;14.48;8.40;;;;;;;14.99;55.00;95895.94;5055680;28;20224;-69
2023/10/03 07:10:57;;;;;;;8.88;7.93;;;;;;;15.23;54.46;95907.59;5074144;28;20220;-71
2023/10/03 07:13:26;;;;;;;10.63;8.80;;;;;;;15.33;54.47;95905.66;5093911;28;20228;-70
2023/10/03 07:15:55;;;;;;;13.77;9.65;;;;;;;15.27;55.11;95908.97;5067122;28;20227;-70
2023/10/03 07:18:22;;;;;;;15.18;9.45;;;;;;;15.44;54.56;95918.63;5089650;28;20286;-67
2023/10/03 07:20:48;;;;;;;16.85;11.00;;;;;;;15.50;54.77;95911.84;5075401;28;20223;-67
2023/10/03 07:23:13;;;;;;;16.95;10.68;;;;;;;15.69;54.21;95913.47;5065558;28;20216;-65
2023/10/03 07:25:39;;;;;;;15.57;11.13;;;;;;;15.69;54.39;95916.13;5085304;28;20223;-66
2023/10/03 07:28:04;;;;;;;15.05;11.05;;;;;;;15.86;53.84;95914.31;5093545;28;20244;-65
2023/10/03 07:30:30;;;;;;;18.52;11.50;;;;;;;15.95;53.13;95923.94;5074603;28;20213;-65
2023/10/03 07:32:55;;;;;;;18.25;12.48;;;;;;;15.63;54.07;95920.19;5098317;28;20180;-69
2023/10/03 07:35:22;;;;;;;15.70;11.90;;;;;;;15.95;53.05;95928.44;5091147;28;20303;-67
2023/10/03 07:37:47;;;;;;;15.68;11.65;;;;;;;15.93;53.21;95919.78;5076797;28;20224;-67
2023/10/03 07:40:13;;;;;;;13.30;11.10;;;;;;;16.07;52.76;95921.81;5080532;28;20224;-68
2023/10/03 07:42:40;;;;;;;18.23;12.18;;;;;;;16.16;52.18;95918.19;5087301;28;20200;-68
2023/10/03 07:45:09;;;;;;;15.40;12.57;;;;;;;16.29;51.82;95921.19;5075415;28;20180;-68
2023/10/03 07:47:37;;;;;;;19.25;11.70;;;;;;;16.24;52.00;95926.16;5064553;28;20221;-71
2023/10/03 07:50:03;;;;;;;14.95;11.15;;;;;;;16.32;51.72;95914.72;5089380;28;20216;-71
2023/10/03 07:52:29;;;;;;;15.93;11.73;;;;;;;16.36;51.40;95912.53;5086032;28;20265;-71
2023/10/03 07:54:56;;;;;;;21.00;12.00;;;;;;;16.44;51.33;95912.53;5083741;28;20342;-70
2023/10/03 07:57:25;;;;;;;16.02;12.05;;;;;;;16.49;51.05;95913.72;5064226;28;20289;-67
2023/10/03 07:59:51;;;;;;;22.92;13.93;;;;;;;16.50;50.47;95911.91;5068937;28;20239;-68
2023/10/03 08:02:17;;;;;;;17.23;13.00;;;;;;;16.60;50.50;95909.91;5062648;28;20221;-68
2023/10/03 08:04:46;;;;;;;17.15;12.82;;;;;;;16.55;50.37;95912.22;5073990;28;20232;-67
2023/10/03 08:07:21;;;;;;;15.90;11.98;;;;;;;16.40;50.87;95908.59;5067409;28;20236;-75
2023/10/03 08:09:47;;;;;;;15.70;12.18;;;;;;;16.50;50.89;95904.75;5086762;28;20192;-70
2023/10/03 08:12:13;;;;;;;16.63;11.38;;;;;;;16.65;50.61;95904.06;5082977;28;20184;-74
2023/10/03 08:14:39;;;;;;;16.58;10.73;;;;;;;16.75;49.79;95905.56;5078078;28;20220;-67
2023/10/03 08:17:05;;;;;;;19.70;11.60;;;;;;;16.84;49.65;95898.47;5058397;28;20228;-66
2023/10/03 08:19:30;;;;;;;14.52;11.35;;;;;;;16.91;49.33;95902.06;5084069;28;20231;-69
2023/10/03 08:21:57;;;;;;;14.32;11.10;;;;;;;16.99;49.10;95901.22;5073637;28;20212;-69
2023/10/03 08:24:24;;;;;;;16.52;12.23;;;;;;;17.05;48.72;95902.38;5089195;28;20188;-71
2023/10/03 08:26:51;;;;;;;18.58;11.55;;;;;;;17.09;48.83;95904.53;5045013;28;20217;-70
2023/10/03 08:29:24;;;;;;;16.23;11.07;;;;;;;17.20;48.60;95903.34;5077576;28;20212;-70
2023/10/03 08:31:57;;;;;;;15.68;11.43;;;;;;;17.30;48.09;95903.16;5085296;28;20212;-70
2023/10/03 08:34:27;;;;;;;22.65;11.05;;;;;;;17.29;48.00;95896.16;5068449;28;20311;-66
2023/10/03 08:36:58;;;;;;;17.30;11.27;;;;;;;17.32;47.92;95901.13;5082523;28;20244;-67
2023/10/03 08:39:25;;;;;;;18.00;11.23;;;;;;;17.44;48.05;95893.63;5088737;28;20206;-67
2023/10/03 08:42:15;;;;;;;19.33;11.05;;;;;;;17.54;47.93;95888.94;5045953;28;20366;-70
2023/10/03 08:44:53;;;;;;;14.20;10.35;;;;;;;17.63;48.05;95894.00;5076715;28;20213;-72
2023/10/03 08:47:29;;;;;;;17.80;10.52;;;;;;;17.58;47.58;95890.22;5058038;28;20228;-72
2023/10/03 08:50:14;;;;;;;14.25;10.00;;;;;;;17.79;47.21;95887.00;5081675;28;20228;-77
2023/10/03 08:52:47;;;;;;;15.27;10.55;;;;;;;17.89;46.76;95892.91;5091595;28;20213;-77
2023/10/03 08:55:19;;;;;;;14.57;10.30;;;;;;;18.02;47.05;95884.38;5088356;28;20224;-74
2023/10/03 08:57:48;;;;;;;18.25;11.00;;;;;;;18.16;45.91;95885.44;5089746;28;20204;-74
2023/10/03 09:00:14;;;;;;;16.35;10.75;;;;;;;18.04;45.92;95883.19;5050666;28;20189;-75
2023/10/03 09:02:47;;;;;;;12.45;9.98;;;;;;;18.05;45.94;95882.16;5052738;28;20219;-75
2023/10/03 09:05:20;;;;;;;15.57;9.68;;;;;;;18.10;46.50;95876.31;5057349;28;20217;-72
2023/10/03 09:07:47;;;;;;;13.70;9.25;;;;;;;18.25;46.11;95869.19;5053764;28;20228;-75
2023/10/03 09:10:22;;;;;;;15.30;9.63;;;;;;;18.37;45.37;95864.28;5062713;28;20219;-78
2023/10/03 09:13:04;;;;;;;12.30;9.43;;;;;;;18.60;45.23;95858.91;5068107;28;20223;-75
2023/10/03 09:15:37;;;;;;;16.38;9.73;;;;;;;18.39;44.89;95856.97;5094076;28;20211;-74
2023/10/03 09:18:09;;;;;;;14.13;9.70;;;;;;;18.55;45.17;95852.47;5095968;28;20305;-73
2023/10/03 09:20:35;;;;;;;10.18;8.63;;;;;;;18.84;44.30;95857.06;5090114;28;20225;-77
2023/10/03 09:23:07;;;;;;;11.98;8.70;;;;;;;18.84;44.67;95863.19;5076424;28;20231;-76
2023/10/03 09:25:38;;;;;;;15.73;9.05;;;;;;;18.97;44.54;95851.91;5059057;28;20224;-75
2023/10/03 09:28:04;;;;;;;12.80;9.60;;;;;;;19.03;44.32;95853.00;5051667;28;20213;-76
2023/10/03 09:30:37;;;;;;;17.15;9.18;;;;;;;19.30;43.33;95852.38;5048454;28;20212;-76
2023/10/03 09:33:08;;;;;;;14.10;9.80;;;;;;;19.23;43.98;95846.13;5068596;28;20179;-75
2023/10/03 09:35:35;;;;;;;14.60;9.25;;;;;;;19.39;43.42;95847.75;5048971;28;20427;-76
2023/10/03 09:38:06;;;;;;;16.15;9.43;;;;;;;19.39;43.76;95850.44;5061945;28;20221;-76
2023/10/03 09:40:51;;;;;;;14.82;9.43;;;;;;;19.55;42.74;95844.88;5065806;28;20242;-77
2023/10/03 09:43:27;;;;;;;16.15;9.70;;;;;;;19.61;42.49;95845.97;5062086;28;20229;-76
2023/10/03 09:45:56;;;;;;;13.55;8.55;;;;;;;19.80;41.85;95845.38;5046502;28;20217;-76
2023/10/03 09:48:24;;;;;;;13.35;8.95;;;;;;;19.88;42.13;95846.28;5068640;28;20180;-76
2023/10/03 09:50:53;;;;;;;11.25;8.10;;;;;;;19.88;41.91;95839.09;5049146;28;20240;-76
2023/10/03 09:53:19;;;;;;;11.50;8.02;;;;;;;20.03;41.94;95839.88;5090059;28;20235;-76
2023/10/03 09:55:49;;;;;;;12.30;8.13;;;;;;;20.15;41.25;95842.03;5089388;28;20280;-76
2023/10/03 09:58:21;;;;;;;10.27;8.10;;;;;;;20.10;40.80;95831.09;5071474;28;20232;-76
2023/10/03 10:00:52;;;;;;;13.80;8.52;;;;;;;19.94;40.77;95829.50;5074802;28;20181;-76
2023/10/03 10:03:26;;;;;;;10.95;8.30;;;;;;;20.05;41.12;95826.34;5069198;28;20188;-76
2023/10/03 10:06:12;;;;;;;12.88;7.95;;;;;;;20.23;41.45;95829.41;5082908;28;20225;-76
2023/10/03 10:08:47;;;;;;;11.50;8.43;;;;;;;20.43;40.91;95828.75;5071579;28;20212;-75
2023/10/03 10:11:13;;;;;;;14.75;8.02;;;;;;;20.61;39.80;95829.13;5069811;28;20224;-76
2023/10/03 10:13:59;;;;;;;13.43;7.72;;;;;;;20.64;39.99;95820.72;5058830;28;20216;-76
2023/10/03 10:16:28;;;;;;;13.05;9.30;;;;;;;20.59;38.94;95819.66;5070977;28;20220;-75
2023/10/03 10:18:54;;;;;;;10.10;7.80;;;;;;;20.52;38.83;95810.72;5097133;28;20232;-76
2023/10/03 10:21:20;;;;;;;11.32;7.60;;;;;;;20.47;39.29;95804.13;5074007;28;20187;-76
2023/10/03 10:24:11;;;;;;;10.88;8.50;;;;;;;20.64;38.78;95804.69;5051794;28;20224;-77
2023/10/03 10:26:38;;;;;;;10.32;7.15;;;;;;;20.72;39.39;95795.69;5075758;28;20358;-76
2023/10/03 10:29:11;;;;;;;8.18;6.65;;;;;;;21.04;38.04;95788.88;5044863;28;20262;-77
2023/10/03 10:31:49;;;;;;;11.07;7.65;;;;;;;20.93;37.82;95792.13;5069851;28;20218;-76
2023/10/03 10:34:22;;;;;;;14.50;7.53;;;;;;;21.01;37.21;95786.59;5073554;28;20220;-76
2023/10/03 10:36:57;;;;;;;10.18;7.10;;;;;;;21.06;37.48;95778.81;5073586;28;20223;-77
2023/10/03 10:39:25;;;;;;;10.80;7.10;;;;;;;21.23;37.31;95781.16;5066990;28;20208;-76
2023/10/03 10:42:10;;;;;;;9.52;7.55;;;;;;;21.44;36.36;95781.06;5089871;28;20215;-75
2023/10/03 10:44:35;;;;;;;10.45;7.75;;;;;;;21.61;36.06;95783.38;5074720;28;20246;-76
2023/10/03 10:47:05;;;;;;;9.25;6.97;;;;;;;21.55;36.08;95772.44;5072006;28;20223;-75
2023/10/03 10:49:30;;;;;;;10.55;7.35;;;;;;;21.63;35.54;95774.13;5065311;28;20212;-76
2023/10/03 10:52:17;;;;;;;9.68;6.85;;;;;;;21.43;35.78;95771.38;5075475;28;20212;-75
2023/10/03 10:54:43;;;;;;;9.95;7.20;;;;;;;21.55;36.15;95768.94;5075552;28;20183;-74
2023/10/03 10:57:19;;;;;;;9.27;7.30;;;;;;;21.71;35.96;95765.91;5078032;28;20180;-75
2023/10/03 10:59:45;;;;;;;12.05;7.60;;;;;;;22.05;34.96;95756.03;5070091;28;20265;-76
2023/10/03 11:02:26;;;;;;;14.05;8.85;;;;;;;22.01;35.97;95757.50;5078117;28;20215;-77
2023/10/03 11:04:56;;;;;;;10.60;8.43;;;;;;;22.05;35.11;95752.53;5074330;28;20226;-77
2023/10/03 11:07:23;;;;;;;11.55;7.93;;;;;;;21.95;35.16;95759.13;5075326;28;20479;-76
2023/10/03 11:09:50;;;;;;;11.45;7.85;;;;;;;22.05;35.15;95755.22;5069126;28;20222;-73
2023/10/03 11:12:26;;;;;;;14.38;7.25;;;;;;;22.05;34.94;95748.00;5066207;28;20285;-75
2023/10/03 11:14:55;;;;;;;10.57;7.88;;;;;;;22.16;35.40;95742.06;5060513;28;20295;-75
2023/10/03 11:17:22;;;;;;;12.75;7.35;;;;;;;22.20;34.93;95734.44;5085018;28;20266;-70
2023/10/03 11:19:52;;;;;;;11.30;7.97;;;;;;;22.18;34.93;95731.09;5076274;28;20236;-72
2023/10/03 11:22:18;;;;;;;9.75;7.68;;;;;;;22.28;35.22;95736.91;5074910;28;20220;-74
2023/10/03 11:24:45;;;;;;;10.95;7.00;;;;;;;22.50;35.39;95728.63;5093039;28;20205;-74
2023/10/03 11:27:28;;;;;;;10.73;7.82;;;;;;;22.59;34.89;95722.03;5073864;28;20175;-74
2023/10/03 11:29:54;;;;;;;8.93;6.97;;;;;;;22.70;35.00;95724.06;5062230;28;20230;-76
2023/10/03 11:32:30;;;;;;;8.77;7.07;;;;;;;22.70;34.75;95712.53;5064941;28;20205;-78
2023/10/03 11:34:57;;;;;;;10.45;7.53;;;;;;;22.79;34.06;95714.75;5076983;28;20227;-74
2023/10/03 11:37:39;;;;;;;8.57;6.97;;;;;;;22.89;33.98;95704.41;5084455;28;20295;-78